Freeman, Iowa
Current Conditions -  °F | °C
As of 3:53 PM on Monday 22 Dec 2014 (Local Time) from KMCW Reporting Station
Haze Haze  
Wind Chill: 26°   Ceiling: 400
Heat Index: 35°   Visibility: 3mi
Dew Point: 34°   Wind: 15mph
Humidity: 96%   Direction: 110°ESE
Pressure: 29.53"   Gusts: NA
Location:  43.1451°N, 93.1385°W
Report Text: KMCW 222153Z AUTO 11013KT 3SM BR OVC004 02/01 A2953 RMK AO2 UPE01RAB01E34 SLP004 P0000 T00170011
Loading
Personal Weather Stations






























Interactive Weather Map New forecast layout! Learn more

10-Day Weather Forecast

Advertisements
Track Severe Weather on mobile